createdAt,value
2017-10-26T00:00:35.248Z,99928.62
2017-10-26T00:03:02.696Z,99930.81
2017-10-26T00:05:30.080Z,99933.17
2017-10-26T00:07:57.511Z,99928.66
2017-10-26T00:10:24.896Z,99928.45
2017-10-26T00:12:52.316Z,99929.38
2017-10-26T00:15:19.704Z,99931.39
2017-10-26T00:17:47.164Z,99914.14
2017-10-26T00:20:14.571Z,99925.55
2017-10-26T00:22:41.968Z,99924.08
2017-10-26T00:25:09.404Z,99905.98
2017-10-26T00:27:36.804Z,99919.61
2017-10-26T00:30:04.244Z,99925.75
2017-10-26T00:32:31.630Z,99925.65
2017-10-26T00:34:59.351Z,99932.70
2017-10-26T00:37:26.740Z,99935.27
2017-10-26T00:39:54.160Z,99931.98
2017-10-26T00:42:21.553Z,99935.99
2017-10-26T00:44:48.971Z,99939.71
2017-10-26T00:47:17.276Z,99944.06
2017-10-26T00:49:44.726Z,99945.41
2017-10-26T00:52:12.125Z,99950.86
2017-10-26T00:54:39.547Z,99948.22
2017-10-26T00:57:06.985Z,99958.75
2017-10-26T00:59:34.388Z,99957.19
2017-10-26T01:02:01.800Z,99959.89
2017-10-26T01:04:29.223Z,99960.83
2017-10-26T01:06:56.652Z,99963.59
2017-10-26T01:09:24.062Z,99961.83
2017-10-26T01:11:51.513Z,99968.59
2017-10-26T01:14:18.912Z,99978.28
2017-10-26T01:16:46.341Z,99968.50
2017-10-26T01:19:13.767Z,99977.84
2017-10-26T01:21:41.220Z,99980.80
2017-10-26T01:24:08.596Z,99979.33
2017-10-26T01:26:36.036Z,99981.97
2017-10-26T01:29:03.465Z,99981.36
2017-10-26T01:31:30.853Z,99984.83
2017-10-26T01:33:58.289Z,99984.94
2017-10-26T01:36:25.675Z,99979.05
2017-10-26T01:38:53.112Z,99979.77
2017-10-26T01:41:20.518Z,99982.25
2017-10-26T01:43:47.936Z,99984.45
2017-10-26T01:46:15.343Z,99983.63
2017-10-26T01:48:42.768Z,99988.53
2017-10-26T01:51:10.163Z,99991.77
2017-10-26T01:53:37.586Z,99984.75
2017-10-26T01:56:05.003Z,99983.14
2017-10-26T01:58:32.448Z,99976.08
2017-10-26T02:00:59.870Z,99979.05
2017-10-26T02:03:27.273Z,99979.05
2017-10-26T02:05:54.713Z,99960.88
2017-10-26T02:08:22.133Z,99952.74
2017-10-26T02:10:49.553Z,99960.53
2017-10-26T02:13:16.955Z,99959.34
2017-10-26T02:15:44.398Z,99956.25
2017-10-26T02:18:11.808Z,99953.36
2017-10-26T02:20:39.251Z,99947.75
2017-10-26T02:23:06.633Z,99950.31
2017-10-26T02:25:34.068Z,99943.20
2017-10-26T02:28:01.453Z,99947.00
2017-10-26T02:30:40.743Z,99937.45
2017-10-26T02:33:08.139Z,99940.84
2017-10-26T02:35:35.553Z,99936.03
2017-10-26T02:38:03.042Z,99933.67
2017-10-26T02:40:30.431Z,99934.89
2017-10-26T02:42:57.839Z,99930.52
2017-10-26T02:45:25.246Z,99928.98
2017-10-26T02:47:52.709Z,99931.28
2017-10-26T02:50:20.123Z,99924.82
2017-10-26T02:52:47.568Z,99922.69
2017-10-26T02:55:14.952Z,99937.02
2017-10-26T02:57:42.376Z,99926.53
2017-10-26T03:00:09.807Z,99920.84
2017-10-26T03:02:37.211Z,99917.44
2017-10-26T03:05:04.629Z,99921.02
2017-10-26T03:07:32.032Z,99915.98
2017-10-26T03:10:00.661Z,99918.83
2017-10-26T03:12:28.053Z,99913.11
2017-10-26T03:14:55.479Z,99918.38
2017-10-26T03:17:22.901Z,99917.63
2017-10-26T03:19:50.319Z,99925.28
2017-10-26T03:22:17.741Z,99933.89
2017-10-26T03:24:45.168Z,99934.14
2017-10-26T03:27:12.573Z,99936.38
2017-10-26T03:29:40.006Z,99930.13
2017-10-26T03:32:07.409Z,99940.29
2017-10-26T03:34:34.816Z,99939.77
2017-10-26T03:37:02.229Z,99940.75
2017-10-26T03:39:29.631Z,99920.38
2017-10-26T03:41:57.076Z,99941.14
2017-10-26T03:44:24.471Z,99938.27
2017-10-26T03:46:51.922Z,99943.30
2017-10-26T03:49:19.313Z,99945.73
2017-10-26T03:51:46.735Z,99953.99
2017-10-26T03:54:14.135Z,99952.33
2017-10-26T03:56:41.613Z,99950.78
2017-10-26T03:59:08.998Z,99951.12
2017-10-26T04:01:36.403Z,99955.81
2017-10-26T04:04:03.845Z,99953.86
2017-10-26T04:06:31.264Z,99947.78
2017-10-26T04:08:58.706Z,99950.08
2017-10-26T04:11:26.133Z,99950.83
2017-10-26T04:13:53.570Z,99942.34
2017-10-26T04:16:20.955Z,99942.39
2017-10-26T04:18:48.432Z,99936.95
2017-10-26T04:21:15.833Z,99941.44
2017-10-26T04:23:43.261Z,99947.62
2017-10-26T04:26:10.704Z,99946.64
2017-10-26T04:28:38.090Z,99951.52
2017-10-26T04:31:05.533Z,99954.80
2017-10-26T04:33:32.973Z,99958.52
2017-10-26T04:36:00.394Z,99956.63
2017-10-26T04:38:27.795Z,99951.35
2017-10-26T04:40:55.212Z,99938.20
2017-10-26T04:43:22.610Z,99933.86
2017-10-26T04:45:50.043Z,99932.82
2017-10-26T04:48:17.448Z,99936.36
2017-10-26T04:50:44.879Z,99941.88
2017-10-26T04:53:12.319Z,99938.56
2017-10-26T04:55:39.759Z,99936.14
2017-10-26T04:58:07.195Z,99933.86
2017-10-26T05:00:34.598Z,99942.95
2017-10-26T05:03:02.027Z,99940.22
2017-10-26T05:05:29.446Z,99941.47
2017-10-26T05:07:56.876Z,99934.08
2017-10-26T05:10:24.275Z,99919.73
2017-10-26T05:12:51.711Z,99918.19
2017-10-26T05:15:19.145Z,99921.28
2017-10-26T05:17:46.601Z,99918.86
2017-10-26T05:20:14.033Z,99919.24
2017-10-26T05:22:41.470Z,99921.53
2017-10-26T05:25:08.903Z,99920.84
2017-10-26T05:27:36.341Z,99917.52
2017-10-26T05:30:03.761Z,99918.66
2017-10-26T05:32:31.155Z,99918.30
2017-10-26T05:34:58.589Z,99914.08
2017-10-26T05:37:26.020Z,99917.58
2017-10-26T05:39:53.457Z,99915.17
2017-10-26T05:42:20.882Z,99921.49
2017-10-26T05:44:48.317Z,99924.22
2017-10-26T05:47:15.740Z,99914.25
2017-10-26T05:49:43.161Z,99910.63
2017-10-26T05:52:10.995Z,99911.27
2017-10-26T05:54:38.450Z,99911.09
2017-10-26T05:57:05.889Z,99908.69
2017-10-26T05:59:33.287Z,99909.04
2017-10-26T06:02:00.719Z,99912.25
2017-10-26T06:04:28.124Z,99905.47
2017-10-26T06:06:55.530Z,99903.44
2017-10-26T06:09:23.043Z,99910.75
2017-10-26T06:11:50.482Z,99911.31
2017-10-26T06:14:17.955Z,99914.00
2017-10-26T06:16:45.363Z,99912.14
2017-10-26T06:19:12.829Z,99916.28
2017-10-26T06:21:40.227Z,99922.55
2017-10-26T06:24:07.695Z,99923.70
2017-10-26T06:26:35.105Z,99924.45
2017-10-26T06:29:02.536Z,99925.63
2017-10-26T06:31:29.955Z,99925.11
2017-10-26T06:33:57.394Z,99926.85
2017-10-26T06:36:24.803Z,99928.38
2017-10-26T06:38:52.219Z,99934.50
2017-10-26T06:41:19.684Z,99934.91
2017-10-26T06:43:47.094Z,99940.69
2017-10-26T06:46:14.539Z,99942.28
2017-10-26T06:48:41.973Z,99946.99
2017-10-26T06:51:09.372Z,99953.23
2017-10-26T06:53:36.799Z,99927.76
2017-10-26T06:56:04.244Z,99955.72
2017-10-26T06:58:31.663Z,99966.83
2017-10-26T07:00:59.090Z,99971.20
2017-10-26T07:03:27.432Z,99968.66
2017-10-26T07:05:54.875Z,99968.43
2017-10-26T07:08:23.278Z,99957.99
2017-10-26T07:10:50.692Z,99963.44
2017-10-26T07:13:18.144Z,99960.92
2017-10-26T07:15:45.556Z,99965.22
2017-10-26T07:18:12.965Z,99959.03
2017-10-26T07:20:40.925Z,99964.12
2017-10-26T07:23:08.352Z,99959.74
2017-10-26T07:25:36.590Z,99965.22
2017-10-26T07:28:03.995Z,99965.87
2017-10-26T07:30:31.437Z,99964.34
2017-10-26T07:32:58.873Z,99961.53
2017-10-26T07:35:27.214Z,99950.00
2017-10-26T07:37:55.404Z,99949.41
2017-10-26T07:40:22.888Z,99946.53
2017-10-26T07:42:50.596Z,99949.92
2017-10-26T07:45:18.039Z,99941.29
2017-10-26T07:47:45.455Z,99938.41
2017-10-26T07:50:12.924Z,99930.76
2017-10-26T07:52:40.336Z,99928.78
2017-10-26T07:55:07.780Z,99922.22
2017-10-26T07:57:35.212Z,99932.48
2017-10-26T08:00:02.655Z,99932.50
2017-10-26T08:02:30.126Z,99928.35
2017-10-26T08:04:58.185Z,99935.73
2017-10-26T08:07:25.938Z,99930.20
2017-10-26T08:09:53.370Z,99936.11
2017-10-26T08:12:21.522Z,99938.14
2017-10-26T08:14:50.265Z,99939.80
2017-10-26T08:17:18.721Z,99945.77
2017-10-26T08:19:46.204Z,99946.78
2017-10-26T08:22:13.648Z,99953.73
2017-10-26T08:24:41.979Z,99942.66
2017-10-26T08:27:10.902Z,99949.99
2017-10-26T08:29:38.301Z,99945.67
2017-10-26T08:32:05.827Z,99948.38
2017-10-26T08:34:33.261Z,99946.89
2017-10-26T08:37:00.717Z,99944.59
2017-10-26T08:39:28.171Z,99945.09
2017-10-26T08:41:55.618Z,99947.22
2017-10-26T08:44:23.021Z,99938.74
2017-10-26T08:46:50.460Z,99941.39
2017-10-26T08:49:17.916Z,99938.63
2017-10-26T08:51:45.308Z,99942.31
2017-10-26T08:54:12.812Z,99941.09
2017-10-26T08:56:40.237Z,99939.98
2017-10-26T08:59:07.709Z,99931.50
2017-10-26T09:01:35.108Z,99946.08
2017-10-26T09:04:02.551Z,99945.31
2017-10-26T09:06:29.986Z,99943.75
2017-10-26T09:08:57.417Z,99944.06
2017-10-26T09:11:24.819Z,99926.24
2017-10-26T09:13:52.289Z,99935.16
2017-10-26T09:16:19.730Z,99934.02
2017-10-26T09:18:47.225Z,99924.31
2017-10-26T09:21:14.692Z,99920.88
2017-10-26T09:23:42.964Z,99927.14
2017-10-26T09:26:10.440Z,99921.11
2017-10-26T09:28:37.876Z,99921.14
2017-10-26T09:31:05.384Z,99918.34
2017-10-26T09:33:38.704Z,99917.78
2017-10-26T09:36:06.151Z,99915.78
2017-10-26T09:38:33.564Z,99915.22
2017-10-26T09:41:01.201Z,99901.43
2017-10-26T09:43:28.662Z,99907.55
2017-10-26T09:45:56.089Z,99908.31
2017-10-26T09:48:23.524Z,99920.27
2017-10-26T09:50:50.943Z,99918.89
2017-10-26T09:53:18.402Z,99923.32
2017-10-26T09:55:45.808Z,99922.21
2017-10-26T09:58:13.199Z,99934.70
2017-10-26T10:00:40.639Z,99938.41
2017-10-26T10:03:08.037Z,99941.09
2017-10-26T10:05:35.464Z,99945.25
2017-10-26T10:08:02.867Z,99955.80
2017-10-26T10:10:30.297Z,99953.25
2017-10-26T10:12:57.707Z,99949.05
2017-10-26T10:15:25.155Z,99950.56
2017-10-26T10:17:52.587Z,99943.28
2017-10-26T10:20:20.137Z,99937.11
2017-10-26T10:22:47.545Z,99929.78
2017-10-26T10:25:14.960Z,99941.05
2017-10-26T10:27:42.365Z,99930.02
2017-10-26T10:30:09.815Z,99895.89
2017-10-26T10:32:37.215Z,99895.30
2017-10-26T10:35:05.510Z,99909.98
2017-10-26T10:37:34.293Z,99909.00
2017-10-26T10:40:01.684Z,99914.73
2017-10-26T10:42:30.025Z,99915.59
2017-10-26T10:44:57.438Z,99914.40
2017-10-26T10:47:24.861Z,99903.70
2017-10-26T10:49:52.295Z,99895.72
2017-10-26T10:52:19.743Z,99897.61
2017-10-26T10:54:47.177Z,99904.30
2017-10-26T10:57:14.588Z,99896.20
2017-10-26T10:59:47.611Z,99904.78
2017-10-26T11:02:15.860Z,99906.78
2017-10-26T11:04:44.016Z,99904.28
2017-10-26T11:07:11.452Z,99906.30
2017-10-26T11:09:38.904Z,99902.72
2017-10-26T11:12:06.308Z,99904.34
2017-10-26T11:14:33.740Z,99900.09
2017-10-26T11:17:01.207Z,99896.80
2017-10-26T11:19:28.627Z,99902.13
2017-10-26T11:21:56.456Z,99894.94
2017-10-26T11:24:23.876Z,99889.92
2017-10-26T11:26:51.335Z,99876.38
2017-10-26T11:29:18.757Z,99879.98
2017-10-26T11:31:46.403Z,99866.94
2017-10-26T11:34:13.851Z,99871.31
2017-10-26T11:36:41.284Z,99867.19
2017-10-26T11:39:08.714Z,99861.47
2017-10-26T11:41:36.151Z,99855.07
2017-10-26T11:44:03.572Z,99856.68
2017-10-26T11:46:31.074Z,99859.20
2017-10-26T11:48:58.548Z,99855.61
2017-10-26T11:51:26.053Z,99853.34
2017-10-26T11:53:53.534Z,99857.06
2017-10-26T11:56:21.840Z,99854.27
2017-10-26T11:58:49.279Z,99844.80
2017-10-26T12:01:16.887Z,99837.88
2017-10-26T12:03:44.410Z,99842.39
2017-10-26T12:06:11.802Z,99834.77
2017-10-26T12:08:39.226Z,99825.16
2017-10-26T12:11:06.732Z,99831.80
2017-10-26T12:13:34.205Z,99826.47
2017-10-26T12:16:01.670Z,99824.45
2017-10-26T12:18:29.071Z,99825.21
2017-10-26T12:20:56.492Z,99822.16
2017-10-26T12:23:23.943Z,99823.47
2017-10-26T12:25:52.384Z,99819.30
2017-10-26T12:28:19.804Z,99811.94
2017-10-26T12:30:47.236Z,99805.14
2017-10-26T12:33:14.768Z,99806.59
2017-10-26T12:35:42.230Z,99797.81
2017-10-26T12:38:09.656Z,99803.01
2017-10-26T12:40:37.110Z,99799.65
2017-10-26T12:43:04.552Z,99799.33
2017-10-26T12:45:32.000Z,99798.41
2017-10-26T12:47:59.424Z,99805.20
2017-10-26T12:50:26.898Z,99796.44
2017-10-26T12:52:54.306Z,99802.43
2017-10-26T12:55:21.746Z,99785.57
2017-10-26T12:57:49.184Z,99797.09
2017-10-26T13:00:16.597Z,99798.28
2017-10-26T13:02:44.531Z,99799.55
2017-10-26T13:05:11.965Z,99795.62
2017-10-26T13:07:39.419Z,99793.09
2017-10-26T13:10:08.415Z,99790.75
2017-10-26T13:12:36.028Z,99796.25
2017-10-26T13:15:03.466Z,99783.57
2017-10-26T13:17:30.887Z,99788.48
2017-10-26T13:19:58.343Z,99784.86
2017-10-26T13:22:25.773Z,99767.27
2017-10-26T13:24:53.233Z,99778.23
2017-10-26T13:27:21.485Z,99786.35
2017-10-26T13:29:48.900Z,99786.35
2017-10-26T13:32:16.349Z,99787.86
2017-10-26T13:34:44.029Z,99787.04
2017-10-26T13:37:11.502Z,99791.16
2017-10-26T13:39:39.068Z,99788.70
2017-10-26T13:42:06.482Z,99789.00
2017-10-26T13:44:34.834Z,99786.50
2017-10-26T13:47:02.238Z,99787.37
2017-10-26T13:49:29.676Z,99771.87
2017-10-26T13:51:57.098Z,99791.38
2017-10-26T13:54:24.589Z,99785.27
2017-10-26T13:56:51.984Z,99789.53
2017-10-26T13:59:19.400Z,99785.03
2017-10-26T14:01:46.819Z,99782.61
2017-10-26T14:04:14.276Z,99782.18
2017-10-26T14:06:41.750Z,99788.03
2017-10-26T14:09:09.780Z,99791.89
2017-10-26T14:11:37.239Z,99785.07
2017-10-26T14:14:04.647Z,99786.46
2017-10-26T14:16:32.218Z,99780.32
2017-10-26T14:18:59.670Z,99800.23
2017-10-26T14:21:27.089Z,99796.42
2017-10-26T14:23:54.534Z,99795.45
2017-10-26T14:26:21.950Z,99796.74
2017-10-26T14:28:49.424Z,99802.84
2017-10-26T14:31:16.859Z,99803.81
2017-10-26T14:33:44.311Z,99798.62
2017-10-26T14:36:11.723Z,99795.59
2017-10-26T14:38:39.161Z,99775.04
2017-10-26T14:41:06.623Z,99779.67
2017-10-26T14:43:34.131Z,99779.09
2017-10-26T14:46:01.537Z,99781.64
2017-10-26T14:48:28.987Z,99771.28
2017-10-26T14:50:56.431Z,99775.50
2017-10-26T14:53:23.888Z,99769.30
2017-10-26T14:55:51.304Z,99781.24
2017-10-26T14:58:18.776Z,99779.64
2017-10-26T15:00:46.250Z,99779.64
2017-10-26T15:03:13.685Z,99770.44
2017-10-26T15:05:41.120Z,99766.73
2017-10-26T15:08:08.572Z,99696.77
2017-10-26T15:10:36.040Z,99765.91
2017-10-26T15:13:03.467Z,99766.77
2017-10-26T15:15:30.897Z,99769.54
2017-10-26T15:17:58.319Z,99759.05
2017-10-26T15:20:25.803Z,99759.03
2017-10-26T15:22:53.281Z,99747.41
2017-10-26T15:25:20.716Z,99757.84
2017-10-26T15:27:48.182Z,99765.81
2017-10-26T15:30:15.605Z,99766.36
2017-10-26T15:32:43.029Z,99754.15
2017-10-26T15:35:10.516Z,99761.48
2017-10-26T15:37:37.942Z,99759.92
2017-10-26T15:40:05.458Z,99750.78
2017-10-26T15:42:32.997Z,99751.34
2017-10-26T15:45:00.449Z,99754.41
2017-10-26T15:47:27.920Z,99753.28
2017-10-26T15:49:55.340Z,99730.84
2017-10-26T15:52:22.820Z,99758.60
2017-10-26T15:54:50.286Z,99751.13
2017-10-26T15:57:17.696Z,99757.08
2017-10-26T15:59:45.141Z,99748.81
2017-10-26T16:02:12.580Z,99747.34
2017-10-26T16:04:40.100Z,99741.48
2017-10-26T16:07:07.552Z,99740.17
2017-10-26T16:09:35.019Z,99743.38
2017-10-26T16:12:02.507Z,99735.44
2017-10-26T16:14:29.964Z,99734.00
2017-10-26T16:16:57.419Z,99736.09
2017-10-26T16:19:24.974Z,99741.70
2017-10-26T16:21:52.506Z,99738.00
2017-10-26T16:24:19.928Z,99739.98
2017-10-26T16:26:47.382Z,99670.43
2017-10-26T16:29:14.819Z,99732.38
2017-10-26T16:31:42.233Z,99732.02
2017-10-26T16:34:09.695Z,99735.10
2017-10-26T16:36:37.137Z,99736.84
2017-10-26T16:39:04.569Z,99742.97
2017-10-26T16:41:32.041Z,99735.95
2017-10-26T16:43:59.480Z,99749.41
2017-10-26T16:46:26.943Z,99746.88
2017-10-26T16:48:54.362Z,99752.08
2017-10-26T16:51:21.860Z,99753.94
2017-10-26T16:53:49.303Z,99752.08
2017-10-26T16:56:16.765Z,99746.23
2017-10-26T16:58:44.209Z,99744.55
2017-10-26T17:01:11.633Z,99759.84
2017-10-26T17:03:39.085Z,99752.91
2017-10-26T17:06:06.503Z,99752.95
2017-10-26T17:08:33.938Z,99747.63
2017-10-26T17:11:01.373Z,99752.95
2017-10-26T17:13:28.800Z,99745.90
2017-10-26T17:15:56.228Z,99756.67
2017-10-26T17:18:23.686Z,99755.09
2017-10-26T17:20:51.097Z,99757.08
2017-10-26T17:23:18.547Z,99763.36
2017-10-26T17:25:45.980Z,99753.94
2017-10-26T17:28:13.430Z,99761.88
2017-10-26T17:30:40.889Z,99765.63
2017-10-26T17:33:08.300Z,99758.30
2017-10-26T17:35:35.755Z,99757.24
2017-10-26T17:38:03.157Z,99757.00
2017-10-26T17:40:30.627Z,99761.40
2017-10-26T17:42:58.093Z,99752.52
2017-10-26T17:45:25.510Z,99753.98
2017-10-26T17:47:52.977Z,99750.91
2017-10-26T17:50:20.363Z,99752.65
2017-10-26T17:52:47.796Z,99746.40
2017-10-26T17:55:15.230Z,99743.49
2017-10-26T17:57:42.674Z,99752.28
2017-10-26T18:00:10.080Z,99739.38
2017-10-26T18:02:37.534Z,99740.98
2017-10-26T18:05:04.944Z,99751.06
2017-10-26T18:07:32.415Z,99744.97
2017-10-26T18:09:59.838Z,99742.16
2017-10-26T18:12:27.258Z,99743.23
2017-10-26T18:14:54.681Z,99737.91
2017-10-26T18:17:22.169Z,99741.77
2017-10-26T18:19:49.616Z,99738.98
2017-10-26T18:22:17.006Z,99735.68
2017-10-26T18:24:44.440Z,99727.55
2017-10-26T18:27:11.875Z,99719.32
2017-10-26T18:29:39.370Z,99714.28
2017-10-26T18:32:06.808Z,99709.23
2017-10-26T18:34:34.229Z,99709.08
2017-10-26T18:37:01.704Z,99708.95
2017-10-26T18:39:29.135Z,99707.75
2017-10-26T18:41:56.571Z,99710.69
2017-10-26T18:44:23.988Z,99702.83
2017-10-26T18:46:51.439Z,99706.56
2017-10-26T18:49:18.861Z,99698.47
2017-10-26T18:51:46.304Z,99702.84
2017-10-26T18:54:13.707Z,99708.04
2017-10-26T18:56:41.163Z,99709.24
2017-10-26T18:59:08.633Z,99713.63
2017-10-26T19:01:36.087Z,99708.30
2017-10-26T19:04:03.532Z,99704.30
2017-10-26T19:06:30.934Z,99703.37
2017-10-26T19:08:58.376Z,99708.30
2017-10-26T19:11:25.815Z,99705.38
2017-10-26T19:13:53.270Z,99705.89
2017-10-26T19:16:20.688Z,99697.55
2017-10-26T19:18:48.159Z,99697.79
2017-10-26T19:21:15.593Z,99697.14
2017-10-26T19:23:43.019Z,99697.55
2017-10-26T19:26:10.468Z,99695.81
2017-10-26T19:28:37.889Z,99701.12
2017-10-26T19:31:05.329Z,99695.27
2017-10-26T19:33:32.750Z,99676.13
2017-10-26T19:36:00.170Z,99682.77
2017-10-26T19:38:27.607Z,99685.83
2017-10-26T19:40:55.039Z,99688.61
2017-10-26T19:43:22.545Z,99684.78
2017-10-26T19:45:49.969Z,99688.77
2017-10-26T19:48:17.412Z,99687.69
2017-10-26T19:50:44.829Z,99691.41
2017-10-26T19:53:12.295Z,99691.81
2017-10-26T19:55:39.726Z,99689.70
2017-10-26T19:58:07.190Z,99692.75
2017-10-26T20:00:34.647Z,99703.75
2017-10-26T20:03:02.052Z,99696.98
2017-10-26T20:05:29.487Z,99704.42
2017-10-26T20:07:56.896Z,99702.95
2017-10-26T20:10:24.347Z,99705.48
2017-10-26T20:12:51.756Z,99696.58
2017-10-26T20:15:19.210Z,99702.80
2017-10-26T20:17:46.620Z,99710.50
2017-10-26T20:20:14.077Z,99711.80
2017-10-26T20:22:41.497Z,99713.47
2017-10-26T20:25:08.912Z,99712.27
2017-10-26T20:27:36.971Z,99715.44
2017-10-26T20:30:04.419Z,99717.16
2017-10-26T20:32:31.845Z,99715.44
2017-10-26T20:34:59.643Z,99702.56
2017-10-26T20:37:27.116Z,99702.41
2017-10-26T20:39:54.551Z,99702.16
2017-10-26T20:42:22.021Z,99702.27
2017-10-26T20:44:49.435Z,99705.84
2017-10-26T20:47:16.842Z,99711.14
2017-10-26T20:49:49.845Z,99706.74
2017-10-26T20:52:22.963Z,99713.36
2017-10-26T20:54:55.907Z,99701.95
2017-10-26T20:57:28.955Z,99655.40
2017-10-26T21:00:01.870Z,99693.33
2017-10-26T21:02:34.956Z,99700.34
2017-10-26T21:05:07.865Z,99704.31
2017-10-26T21:07:40.779Z,99707.25
2017-10-26T21:10:13.706Z,99712.47
2017-10-26T21:12:47.160Z,99709.28
2017-10-26T21:15:14.696Z,99712.73
2017-10-26T21:17:42.109Z,99686.70
2017-10-26T21:20:09.533Z,99694.70
2017-10-26T21:22:36.964Z,99699.59
2017-10-26T21:25:04.495Z,99699.42
2017-10-26T21:27:31.977Z,99696.77
2017-10-26T21:29:59.402Z,99694.12
2017-10-26T21:32:26.827Z,99694.25
2017-10-26T21:34:54.242Z,99703.52
2017-10-26T21:37:21.700Z,99706.41
2017-10-26T21:39:49.281Z,99697.21
2017-10-26T23:23:10.756Z,99576.42
2017-10-26T23:25:38.223Z,99601.42
2017-10-26T23:28:05.618Z,99592.16
2017-10-26T23:30:33.075Z,99592.61
2017-10-26T23:33:00.501Z,99589.83
2017-10-26T23:35:27.957Z,99596.61
2017-10-26T23:37:55.373Z,99589.95
2017-10-26T23:40:22.854Z,99586.86
2017-10-26T23:42:50.292Z,99592.24
2017-10-26T23:45:17.720Z,99607.45
2017-10-26T23:47:45.155Z,99604.50
2017-10-26T23:50:12.560Z,99601.06
2017-10-26T23:52:40.034Z,99594.84
2017-10-26T23:55:07.461Z,99596.36
2017-10-26T23:57:34.895Z,99593.16
